Time;durP1;ratioP1;P1;durP2;ratioP2;P2;SDS_P1;SDS_P2;PMS_P1;PMS_P2;Temp;Humidity;BMP_temperature;BMP_pressure;BME280_temperature;BME280_humidity;BME280_pressure;Samples;Min_cycle;Max_cycle;Signal;HPM_P1;HPM_P2
2022/03/31 00:00:24;;;;;;;15.40;8.10;;;;;;;;;;5070945;28;20032;-35
2022/03/31 00:02:50;;;;;;;13.20;7.40;;;;;;;;;;5070589;28;20040;-35
2022/03/31 00:05:15;;;;;;;12.40;7.63;;;;;;;;;;5070785;28;20036;-34
2022/03/31 00:07:47;;;;;;;15.38;7.10;;;;;;;;;;5070537;28;20028;-36
2022/03/31 00:10:13;;;;;;;15.65;8.25;;;;;;;;;;5073242;28;20036;-35
2022/03/31 00:12:38;;;;;;;11.98;6.93;;;;;;;;;;5074356;28;20379;-34
2022/03/31 00:15:04;;;;;;;18.67;7.70;;;;;;;;;;5074576;28;20486;-35
2022/03/31 00:17:29;;;;;;;10.43;6.35;;;;;;;;;;5074454;28;20150;-35
2022/03/31 00:19:55;;;;;;;14.40;8.50;;;;;;;;;;5074206;28;20044;-35
2022/03/31 00:22:21;;;;;;;12.48;6.80;;;;;;;;;;5074292;28;20023;-35
2022/03/31 00:24:46;;;;;;;15.73;6.70;;;;;;;;;;5074227;28;20145;-35
2022/03/31 00:27:11;;;;;;;14.13;7.70;;;;;;;;;;5074444;28;20720;-34
2022/03/31 00:29:37;;;;;;;11.52;7.28;;;;;;;;;;5089600;28;20499;-34
2022/03/31 00:32:03;;;;;;;16.45;7.95;;;;;;;;;;5072655;28;20027;-35
2022/03/31 00:34:30;;;;;;;12.60;7.53;;;;;;;;;;5074281;28;20422;-35
2022/03/31 00:36:56;;;;;;;12.32;7.13;;;;;;;;;;5072652;28;20028;-34
2022/03/31 00:39:32;;;;;;;16.23;7.78;;;;;;;;;;5073841;28;20029;-34
2022/03/31 00:41:58;;;;;;;19.52;7.00;;;;;;;;;;5073857;28;20025;-35
2022/03/31 00:44:24;;;;;;;14.00;7.80;;;;;;;;;;5072355;28;20457;-35
2022/03/31 00:46:50;;;;;;;15.18;7.20;;;;;;;;;;5073665;28;20116;-35
2022/03/31 00:49:16;;;;;;;24.15;8.20;;;;;;;;;;5073795;28;20025;-35
2022/03/31 00:51:42;;;;;;;11.43;6.57;;;;;;;;;;5073821;28;20123;-35
2022/03/31 00:54:07;;;;;;;9.90;5.80;;;;;;;;;;5073380;28;20466;-35
2022/03/31 00:56:33;;;;;;;18.38;7.47;;;;;;;;;;5072201;28;20033;-35
2022/03/31 00:58:59;;;;;;;21.13;7.80;;;;;;;;;;5072377;28;20060;-35
2022/03/31 01:01:24;;;;;;;10.55;6.45;;;;;;;;;;5073408;28;20103;-34
2022/03/31 01:03:50;;;;;;;14.25;5.93;;;;;;;;;;5073423;28;20083;-35
2022/03/31 01:06:16;;;;;;;15.27;7.88;;;;;;;;;;5073769;28;20481;-35
2022/03/31 01:08:42;;;;;;;17.90;7.68;;;;;;;;;;5073463;28;20434;-35
2022/03/31 01:11:07;;;;;;;11.00;6.47;;;;;;;;;;5072009;28;20062;-34
2022/03/31 01:13:33;;;;;;;13.63;6.65;;;;;;;;;;5073202;28;20033;-35
2022/03/31 01:15:58;;;;;;;11.50;7.07;;;;;;;;;;5073220;28;20029;-34
2022/03/31 01:18:25;;;;;;;16.30;6.15;;;;;;;;;;5073408;28;20052;-35
2022/03/31 01:20:50;;;;;;;10.77;5.68;;;;;;;;;;5072477;28;20035;-35
2022/03/31 01:23:16;;;;;;;17.08;6.05;;;;;;;;;;5073199;28;20028;-35
2022/03/31 01:25:42;;;;;;;12.20;6.80;;;;;;;;;;5073001;28;20493;-35
2022/03/31 01:28:07;;;;;;;13.75;6.10;;;;;;;;;;5072945;28;20099;-36
2022/03/31 01:30:33;;;;;;;12.07;6.53;;;;;;;;;;5073091;28;20033;-34
2022/03/31 01:32:58;;;;;;;10.93;6.35;;;;;;;;;;5072925;28;20039;-35
2022/03/31 01:35:23;;;;;;;11.65;6.72;;;;;;;;;;5073020;28;20029;-35
2022/03/31 01:37:49;;;;;;;13.07;6.38;;;;;;;;;;5072793;28;20056;-34
2022/03/31 01:40:14;;;;;;;12.25;7.10;;;;;;;;;;5073245;28;20062;-35
2022/03/31 01:42:40;;;;;;;20.08;6.72;;;;;;;;;;5072578;28;20016;-35
2022/03/31 01:45:07;;;;;;;11.35;5.78;;;;;;;;;;5071473;28;20105;-34
2022/03/31 01:47:33;;;;;;;15.80;6.78;;;;;;;;;;5072814;28;20025;-35
2022/03/31 01:50:00;;;;;;;10.45;6.60;;;;;;;;;;5071233;28;20393;-35
2022/03/31 01:52:27;;;;;;;12.70;6.72;;;;;;;;;;5072193;28;20028;-35
2022/03/31 01:54:52;;;;;;;17.75;5.53;;;;;;;;;;5072476;28;20032;-35
2022/03/31 01:57:18;;;;;;;11.60;5.85;;;;;;;;;;5072666;28;20031;-35
2022/03/31 01:59:43;;;;;;;14.07;6.22;;;;;;;;;;5072294;28;20028;-35
2022/03/31 02:02:10;;;;;;;13.02;6.78;;;;;;;;;;5072337;28;20447;-35
2022/03/31 02:04:36;;;;;;;10.45;6.30;;;;;;;;;;5072301;28;20483;-36
2022/03/31 02:07:01;;;;;;;14.13;5.68;;;;;;;;;;5072200;28;20055;-35
2022/03/31 02:09:27;;;;;;;11.35;5.47;;;;;;;;;;5072334;28;20028;-35
2022/03/31 02:11:52;;;;;;;9.65;5.88;;;;;;;;;;5072261;28;20021;-35
2022/03/31 02:14:19;;;;;;;12.65;5.68;;;;;;;;;;5070845;28;20537;-35
2022/03/31 02:16:45;;;;;;;9.45;5.88;;;;;;;;;;5071989;28;20024;-35
2022/03/31 02:19:11;;;;;;;10.77;6.07;;;;;;;;;;5071904;28;20025;-34
2022/03/31 02:21:37;;;;;;;7.20;4.82;;;;;;;;;;5071851;28;20020;-35
2022/03/31 02:24:03;;;;;;;12.88;6.78;;;;;;;;;;5071838;28;20098;-35
2022/03/31 02:26:28;;;;;;;11.13;6.45;;;;;;;;;;5072014;28;20017;-34
2022/03/31 02:28:53;;;;;;;14.02;7.53;;;;;;;;;;5072059;28;20101;-35
2022/03/31 02:31:19;;;;;;;11.73;5.57;;;;;;;;;;5071673;28;20023;-35
2022/03/31 02:33:45;;;;;;;12.02;5.55;;;;;;;;;;5070768;28;20044;-35
2022/03/31 02:36:11;;;;;;;16.55;6.80;;;;;;;;;;5071686;28;20073;-35
2022/03/31 02:38:36;;;;;;;19.95;6.35;;;;;;;;;;5071831;28;20115;-35
2022/03/31 02:41:03;;;;;;;16.20;5.90;;;;;;;;;;5071566;28;20024;-35
2022/03/31 02:43:28;;;;;;;7.70;4.60;;;;;;;;;;5071511;28;20032;-35
2022/03/31 02:45:54;;;;;;;12.60;5.13;;;;;;;;;;5071481;28;20024;-35
2022/03/31 02:48:19;;;;;;;10.32;5.88;;;;;;;;;;5071789;28;20033;-35
2022/03/31 02:50:45;;;;;;;15.20;5.95;;;;;;;;;;5071704;28;20020;-35
2022/03/31 02:55:55;;;;;;;14.85;6.43;;;;;;;;;;5071502;28;20037;-35
2022/03/31 02:58:20;;;;;;;8.77;4.45;;;;;;;;;;5071530;28;20027;-35
2022/03/31 03:00:46;;;;;;;16.55;6.70;;;;;;;;;;5071269;28;20033;-35
2022/03/31 03:03:11;;;;;;;9.38;5.75;;;;;;;;;;5071402;28;20025;-35
2022/03/31 03:05:36;;;;;;;9.27;4.80;;;;;;;;;;5071533;28;20067;-35
2022/03/31 03:08:02;;;;;;;11.80;5.68;;;;;;;;;;5071318;28;20389;-35
2022/03/31 03:10:27;;;;;;;7.40;4.72;;;;;;;;;;5071224;28;20016;-35
2022/03/31 03:12:53;;;;;;;7.28;4.43;;;;;;;;;;5071215;28;20475;-35
2022/03/31 03:15:18;;;;;;;7.80;4.70;;;;;;;;;;5071473;28;20127;-35
2022/03/31 03:17:45;;;;;;;8.05;5.43;;;;;;;;;;5071122;28;20017;-35
2022/03/31 03:20:14;;;;;;;8.43;4.60;;;;;;;;;;5071197;28;20024;-34
2022/03/31 03:22:47;;;;;;;14.90;5.93;;;;;;;;;;5071152;28;20033;-35
2022/03/31 03:25:13;;;;;;;10.02;4.63;;;;;;;;;;5071458;28;20045;-35
2022/03/31 03:27:39;;;;;;;6.80;4.47;;;;;;;;;;5070142;28;20119;-35
2022/03/31 03:30:05;;;;;;;9.27;4.32;;;;;;;;;;5071077;28;20497;-35
2022/03/31 03:32:30;;;;;;;7.45;4.75;;;;;;;;;;5071071;28;20463;-35
2022/03/31 03:34:56;;;;;;;10.10;4.97;;;;;;;;;;5071096;28;20043;-35
2022/03/31 03:37:21;;;;;;;13.23;4.18;;;;;;;;;;5070954;28;20231;-35
2022/03/31 03:39:47;;;;;;;7.55;4.55;;;;;;;;;;5070861;28;20039;-35
2022/03/31 03:42:12;;;;;;;9.18;3.95;;;;;;;;;;5070992;28;20046;-35
2022/03/31 03:44:38;;;;;;;7.45;4.50;;;;;;;;;;5072271;28;20043;-35
2022/03/31 03:47:04;;;;;;;6.57;3.38;;;;;;;;;;5074972;28;20101;-35
2022/03/31 03:49:30;;;;;;;8.80;5.25;;;;;;;;;;5073491;28;20047;-35
2022/03/31 03:51:55;;;;;;;7.72;4.55;;;;;;;;;;5074710;28;20016;-35
2022/03/31 03:54:21;;;;;;;9.00;4.95;;;;;;;;;;5074698;28;20052;-35
2022/03/31 03:56:46;;;;;;;13.30;4.30;;;;;;;;;;5074829;28;20032;-35
2022/03/31 03:59:12;;;;;;;12.73;4.88;;;;;;;;;;5074646;28;20502;-35
2022/03/31 04:01:37;;;;;;;8.55;4.85;;;;;;;;;;5074430;28;20042;-35
2022/03/31 04:04:03;;;;;;;5.90;3.20;;;;;;;;;;5074475;28;20089;-35
2022/03/31 04:06:28;;;;;;;6.75;3.28;;;;;;;;;;5074440;28;20013;-35
2022/03/31 04:08:53;;;;;;;5.38;3.42;;;;;;;;;;5074723;28;20032;-34
2022/03/31 04:11:19;;;;;;;10.48;3.38;;;;;;;;;;5074681;28;20016;-35
2022/03/31 04:13:46;;;;;;;7.55;3.20;;;;;;;;;;5074283;28;20037;-36
2022/03/31 04:16:11;;;;;;;10.15;3.47;;;;;;;;;;5074327;28;20035;-35
2022/03/31 04:18:38;;;;;;;4.25;2.47;;;;;;;;;;5074326;28;20024;-35
2022/03/31 04:21:03;;;;;;;4.43;2.60;;;;;;;;;;5074230;28;20387;-36
2022/03/31 04:23:29;;;;;;;6.55;3.72;;;;;;;;;;5074085;28;20036;-35
2022/03/31 04:25:55;;;;;;;9.20;2.95;;;;;;;;;;5074130;28;20013;-35
2022/03/31 04:28:20;;;;;;;8.52;3.97;;;;;;;;;;5074002;28;20029;-35
2022/03/31 04:30:46;;;;;;;8.32;2.60;;;;;;;;;;5074229;28;20028;-34
2022/03/31 04:33:11;;;;;;;8.27;3.08;;;;;;;;;;5074001;28;20028;-35
2022/03/31 04:35:36;;;;;;;8.30;2.97;;;;;;;;;;5073947;28;20386;-35
2022/03/31 04:38:05;;;;;;;13.93;4.30;;;;;;;;;;5074243;28;20379;-35
2022/03/31 04:40:32;;;;;;;10.50;3.63;;;;;;;;;;5074024;28;20516;-35
2022/03/31 04:42:57;;;;;;;10.45;5.78;;;;;;;;;;5074130;28;20024;-43
2022/03/31 04:45:23;;;;;;;8.63;2.38;;;;;;;;;;5073857;28;20466;-35
2022/03/31 04:47:48;;;;;;;13.13;3.22;;;;;;;;;;5072393;28;20032;-35
2022/03/31 04:50:14;;;;;;;12.88;2.75;;;;;;;;;;5074004;28;20017;-35
2022/03/31 04:52:40;;;;;;;8.07;3.08;;;;;;;;;;5073657;28;20131;-35
2022/03/31 04:55:06;;;;;;;6.95;4.72;;;;;;;;;;5073577;28;20082;-37
2022/03/31 04:57:31;;;;;;;8.15;2.30;;;;;;;;;;5072983;28;20028;-35
2022/03/31 04:59:58;;;;;;;8.43;4.18;;;;;;;;;;5073754;28;20040;-36
2022/03/31 05:02:24;;;;;;;9.15;2.35;;;;;;;;;;5073558;28;20108;-35
2022/03/31 05:04:49;;;;;;;3.50;2.17;;;;;;;;;;5073256;28;20060;-35
2022/03/31 05:07:14;;;;;;;5.57;2.38;;;;;;;;;;5073714;28;20024;-35
2022/03/31 05:09:41;;;;;;;6.78;2.17;;;;;;;;;;5073207;28;20086;-35
2022/03/31 05:12:07;;;;;;;5.22;2.53;;;;;;;;;;5073354;28;20067;-35
2022/03/31 05:14:32;;;;;;;8.20;2.10;;;;;;;;;;5073485;28;20056;-35
2022/03/31 05:16:58;;;;;;;8.98;2.95;;;;;;;;;;5073473;28;20131;-35
2022/03/31 05:19:24;;;;;;;3.33;2.38;;;;;;;;;;5072995;28;20016;-35
2022/03/31 05:21:50;;;;;;;9.02;2.05;;;;;;;;;;5073077;28;20025;-35
2022/03/31 05:24:15;;;;;;;4.93;2.03;;;;;;;;;;5072919;28;20024;-34
2022/03/31 05:26:41;;;;;;;4.85;1.65;;;;;;;;;;5073050;28;20056;-35
2022/03/31 05:29:06;;;;;;;3.35;2.03;;;;;;;;;;5073264;28;20479;-34
2022/03/31 05:31:32;;;;;;;12.00;2.05;;;;;;;;;;5072830;28;20032;-36
2022/03/31 05:33:57;;;;;;;8.38;2.20;;;;;;;;;;5072690;28;20020;-35
2022/03/31 05:36:23;;;;;;;8.77;1.65;;;;;;;;;;5072850;28;20374;-35
2022/03/31 05:38:49;;;;;;;6.95;2.28;;;;;;;;;;5072707;28;20494;-35
2022/03/31 05:41:14;;;;;;;7.97;2.17;;;;;;;;;;5073078;28;20031;-35
2022/03/31 05:43:40;;;;;;;5.25;2.65;;;;;;;;;;5072621;28;20128;-35
2022/03/31 05:46:05;;;;;;;11.32;2.30;;;;;;;;;;5072582;28;20028;-35
2022/03/31 05:48:31;;;;;;;2.47;1.48;;;;;;;;;;5072592;28;20024;-35
2022/03/31 05:50:56;;;;;;;3.08;1.63;;;;;;;;;;5072798;28;20048;-34
2022/03/31 05:53:22;;;;;;;3.88;1.52;;;;;;;;;;5072313;28;20494;-34
2022/03/31 05:55:47;;;;;;;1.98;1.52;;;;;;;;;;5072208;28;20032;-35
2022/03/31 05:58:13;;;;;;;10.43;1.67;;;;;;;;;;5072302;28;20040;-35
2022/03/31 06:00:39;;;;;;;6.55;2.83;;;;;;;;;;5072461;28;20047;-35
2022/03/31 06:03:04;;;;;;;5.40;1.50;;;;;;;;;;5072208;28;20463;-34
2022/03/31 06:05:30;;;;;;;4.70;1.63;;;;;;;;;;5072182;28;20036;-35
2022/03/31 06:07:56;;;;;;;6.60;2.65;;;;;;;;;;5071756;28;20048;-34
2022/03/31 06:10:22;;;;;;;7.97;1.58;;;;;;;;;;5072231;28;20042;-35
2022/03/31 06:12:47;;;;;;;3.78;1.50;;;;;;;;;;5072031;28;20031;-35
2022/03/31 06:15:15;;;;;;;5.10;1.67;;;;;;;;;;5072123;28;20032;-35
2022/03/31 06:17:41;;;;;;;4.38;1.83;;;;;;;;;;5072224;28;20048;-35
2022/03/31 06:20:07;;;;;;;2.90;1.38;;;;;;;;;;5071877;28;20029;-35
2022/03/31 06:22:33;;;;;;;4.47;1.50;;;;;;;;;;5072181;28;20033;-35
2022/03/31 06:24:58;;;;;;;2.90;1.58;;;;;;;;;;5072006;28;20156;-35
2022/03/31 06:27:24;;;;;;;7.50;1.48;;;;;;;;;;5071879;28;20059;-34
2022/03/31 06:29:49;;;;;;;6.10;2.85;;;;;;;;;;5071715;28;20036;-35
2022/03/31 06:32:15;;;;;;;3.08;1.65;;;;;;;;;;5071849;28;20016;-34
2022/03/31 06:34:41;;;;;;;1.52;1.35;;;;;;;;;;5070363;28;20035;-35
2022/03/31 06:37:06;;;;;;;1.60;0.88;;;;;;;;;;5071802;28;20020;-35
2022/03/31 06:39:32;;;;;;;6.40;1.40;;;;;;;;;;5071597;28;20033;-34
2022/03/31 06:41:57;;;;;;;7.63;1.90;;;;;;;;;;5071656;28;20031;-35
2022/03/31 06:44:23;;;;;;;7.28;1.40;;;;;;;;;;5071585;28;20036;-35
2022/03/31 06:46:48;;;;;;;1.42;1.10;;;;;;;;;;5071552;28;20016;-35
2022/03/31 06:49:13;;;;;;;2.22;0.85;;;;;;;;;;5071781;28;20064;-34
2022/03/31 06:51:39;;;;;;;5.72;1.33;;;;;;;;;;5071490;28;20017;-35
2022/03/31 06:54:04;;;;;;;2.38;1.27;;;;;;;;;;5071432;28;20079;-35
2022/03/31 06:56:31;;;;;;;2.60;0.95;;;;;;;;;;5071387;28;20635;-36
2022/03/31 06:58:57;;;;;;;2.95;0.95;;;;;;;;;;5071761;28;20352;-35
2022/03/31 07:01:22;;;;;;;3.13;1.10;;;;;;;;;;5071444;28;20020;-34
2022/03/31 07:03:48;;;;;;;7.88;0.95;;;;;;;;;;5071126;28;20036;-35
2022/03/31 07:06:14;;;;;;;2.63;1.05;;;;;;;;;;5071438;28;20070;-35
2022/03/31 07:08:39;;;;;;;1.30;0.65;;;;;;;;;;5071239;28;20157;-35
2022/03/31 07:11:05;;;;;;;2.13;1.20;;;;;;;;;;5071221;28;20116;-34
2022/03/31 07:13:31;;;;;;;2.88;1.42;;;;;;;;;;5071226;28;20036;-35
2022/03/31 07:15:57;;;;;;;1.17;0.52;;;;;;;;;;5071244;28;20027;-35
2022/03/31 07:18:23;;;;;;;0.80;0.63;;;;;;;;;;5071263;28;20032;-35
2022/03/31 07:20:49;;;;;;;2.13;1.10;;;;;;;;;;5069900;28;20102;-35
2022/03/31 07:23:17;;;;;;;2.53;0.98;;;;;;;;;;5071132;28;20494;-34
2022/03/31 07:25:43;;;;;;;1.05;0.93;;;;;;;;;;5071145;28;20017;-35
2022/03/31 07:28:08;;;;;;;1.67;1.05;;;;;;;;;;5071166;28;20373;-35
2022/03/31 07:30:34;;;;;;;4.15;0.98;;;;;;;;;;5071038;28;20039;-34
2022/03/31 07:33:00;;;;;;;6.88;1.30;;;;;;;;;;5071059;28;20383;-34
2022/03/31 07:35:27;;;;;;;3.30;0.75;;;;;;;;;;5069813;28;20025;-35
2022/03/31 07:37:54;;;;;;;3.13;0.52;;;;;;;;;;5070957;28;20036;-35
2022/03/31 07:40:20;;;;;;;1.55;0.50;;;;;;;;;;5071261;28;20036;-35
2022/03/31 07:42:46;;;;;;;8.05;0.82;;;;;;;;;;5069659;28;20556;-35
2022/03/31 07:45:11;;;;;;;4.82;0.95;;;;;;;;;;5071176;28;20178;-35
2022/03/31 07:47:38;;;;;;;1.88;0.60;;;;;;;;;;5071029;28;20463;-35
2022/03/31 07:50:04;;;;;;;1.05;0.50;;;;;;;;;;5070974;28;20161;-34
2022/03/31 07:52:30;;;;;;;4.30;1.48;;;;;;;;;;5070645;28;20028;-36
2022/03/31 07:54:55;;;;;;;7.10;0.80;;;;;;;;;;5070793;28;20032;-35
2022/03/31 07:57:21;;;;;;;2.30;1.02;;;;;;;;;;5070952;28;20086;-34
2022/03/31 07:59:47;;;;;;;5.25;0.52;;;;;;;;;;5070575;28;20375;-35
2022/03/31 08:02:12;;;;;;;4.07;0.50;;;;;;;;;;5069605;28;20066;-35
2022/03/31 08:04:38;;;;;;;1.63;0.63;;;;;;;;;;5070878;28;20028;-35
2022/03/31 08:07:03;;;;;;;1.88;0.70;;;;;;;;;;5070659;28;20093;-35
2022/03/31 08:09:29;;;;;;;0.68;0.50;;;;;;;;;;5070746;28;20028;-34
2022/03/31 08:11:55;;;;;;;6.40;0.85;;;;;;;;;;5086157;28;20032;-35
2022/03/31 08:14:21;;;;;;;0.63;0.52;;;;;;;;;;5070524;28;20475;-35
2022/03/31 08:16:48;;;;;;;4.03;0.60;;;;;;;;;;5070604;28;20495;-38
2022/03/31 08:19:15;;;;;;;1.13;0.57;;;;;;;;;;5070862;28;20020;-34
2022/03/31 08:21:42;;;;;;;1.52;0.38;;;;;;;;;;5070592;28;20024;-35
2022/03/31 08:24:08;;;;;;;0.70;0.60;;;;;;;;;;5070770;28;20033;-35
2022/03/31 08:26:34;;;;;;;0.20;0.20;;;;;;;;;;5070781;28;20039;-35
2022/03/31 08:28:59;;;;;;;4.80;1.00;;;;;;;;;;5069552;28;20379;-35
2022/03/31 08:31:25;;;;;;;2.83;1.40;;;;;;;;;;5054078;28;20054;-35
2022/03/31 08:33:50;;;;;;;0.95;0.60;;;;;;;;;;5074049;28;20379;-37
2022/03/31 08:36:16;;;;;;;0.40;0.30;;;;;;;;;;5074078;28;20035;-35
2022/03/31 08:38:43;;;;;;;2.58;0.70;;;;;;;;;;5073921;28;20129;-35
2022/03/31 08:41:11;;;;;;;1.55;0.47;;;;;;;;;;5074207;28;20040;-35
2022/03/31 08:43:37;;;;;;;0.68;0.68;;;;;;;;;;5073693;28;20032;-34
2022/03/31 08:46:06;;;;;;;1.98;0.55;;;;;;;;;;5073911;28;20107;-35
2022/03/31 08:48:32;;;;;;;1.98;0.43;;;;;;;;;;5073818;28;20107;-35
2022/03/31 08:50:58;;;;;;;0.75;0.52;;;;;;;;;;5073739;28;20529;-35
2022/03/31 08:53:23;;;;;;;1.35;0.57;;;;;;;;;;5072290;28;20037;-35
2022/03/31 08:55:49;;;;;;;1.75;0.50;;;;;;;;;;5073603;28;20033;-35
2022/03/31 08:58:14;;;;;;;4.50;1.60;;;;;;;;;;5073610;28;20020;-35
2022/03/31 09:00:41;;;;;;;1.02;0.43;;;;;;;;;;5073482;28;20038;-35
2022/03/31 09:03:12;;;;;;;2.38;0.77;;;;;;;;;;5073458;28;20028;-35
2022/03/31 09:05:41;;;;;;;2.58;0.40;;;;;;;;;;5073314;28;20033;-34
2022/03/31 09:08:09;;;;;;;1.15;0.70;;;;;;;;;;5073527;28;20540;-35
2022/03/31 09:10:40;;;;;;;1.45;0.85;;;;;;;;;;5073257;28;20036;-35
2022/03/31 09:13:28;;;;;;;1.38;0.73;;;;;;;;;;5073411;28;20086;-35
2022/03/31 09:15:53;;;;;;;1.45;0.65;;;;;;;;;;5073229;28;20028;-35
2022/03/31 09:18:23;;;;;;;0.50;0.30;;;;;;;;;;5073253;28;20550;-35
2022/03/31 09:20:50;;;;;;;2.58;0.70;;;;;;;;;;5073058;28;20035;-35
2022/03/31 09:23:16;;;;;;;0.50;0.47;;;;;;;;;;5073027;28;20524;-35
2022/03/31 09:25:42;;;;;;;0.65;0.47;;;;;;;;;;5073017;28;20033;-34
2022/03/31 09:28:15;;;;;;;0.45;0.40;;;;;;;;;;5073367;28;20637;-36
2022/03/31 09:30:44;;;;;;;0.85;0.50;;;;;;;;;;5072936;28;20479;-35
2022/03/31 09:33:09;;;;;;;0.38;0.38;;;;;;;;;;5072930;28;20364;-35
2022/03/31 09:35:35;;;;;;;5.28;0.63;;;;;;;;;;5071525;28;20090;-35
2022/03/31 09:38:10;;;;;;;0.38;0.25;;;;;;;;;;5072867;28;20531;-35
2022/03/31 09:40:36;;;;;;;3.90;0.40;;;;;;;;;;5072609;28;20528;-35
2022/03/31 09:43:01;;;;;;;0.43;0.25;;;;;;;;;;5072169;28;20063;-35
2022/03/31 09:45:48;;;;;;;3.22;0.57;;;;;;;;;;5072982;28;20036;-35
2022/03/31 09:48:18;;;;;;;3.03;0.70;;;;;;;;;;5072590;28;20032;-35
2022/03/31 09:50:44;;;;;;;5.65;0.70;;;;;;;;;;5072502;28;20055;-35
2022/03/31 09:53:11;;;;;;;1.45;0.60;;;;;;;;;;5072383;28;20048;-35
2022/03/31 09:55:38;;;;;;;2.70;0.50;;;;;;;;;;5072455;28;20033;-35
2022/03/31 09:58:04;;;;;;;0.65;0.50;;;;;;;;;;5072478;28;20034;-35
2022/03/31 10:00:30;;;;;;;2.30;0.65;;;;;;;;;;5072390;28;20055;-35
2022/03/31 10:02:55;;;;;;;1.38;0.50;;;;;;;;;;5071229;28;20057;-35
2022/03/31 10:05:22;;;;;;;1.30;0.47;;;;;;;;;;5072239;28;20387;-35
2022/03/31 10:07:48;;;;;;;1.10;0.45;;;;;;;;;;5072145;28;20017;-35
2022/03/31 10:10:13;;;;;;;0.95;0.63;;;;;;;;;;5071054;28;20029;-35
2022/03/31 10:12:42;;;;;;;0.38;0.38;;;;;;;;;;5070845;28;20410;-35
2022/03/31 10:15:26;;;;;;;0.30;0.30;;;;;;;;;;5072128;28;20032;-35
2022/03/31 10:17:51;;;;;;;1.40;0.45;;;;;;;;;;5072014;28;20503;-37
2022/03/31 10:20:17;;;;;;;0.88;0.60;;;;;;;;;;5071976;28;20020;-35
2022/03/31 10:25:40;;;;;;;0.25;0.22;;;;;;;;;;5072190;28;20039;-35
2022/03/31 10:28:07;;;;;;;0.47;0.30;;;;;;;;;;5071979;28;20043;-35
2022/03/31 10:30:33;;;;;;;0.73;0.35;;;;;;;;;;5072086;28;20190;-35
2022/03/31 10:33:04;;;;;;;0.30;0.20;;;;;;;;;;5071806;28;20025;-35
2022/03/31 10:35:32;;;;;;;0.10;0.10;;;;;;;;;;5071981;28;20146;-36
2022/03/31 10:37:58;;;;;;;1.25;0.95;;;;;;;;;;5071637;28;20061;-35
2022/03/31 10:40:34;;;;;;;2.28;0.50;;;;;;;;;;5071654;28;20490;-35
2022/03/31 10:43:00;;;;;;;0.95;0.30;;;;;;;;;;5070542;28;20146;-35
2022/03/31 10:45:38;;;;;;;0.45;0.30;;;;;;;;;;5071534;28;20063;-35
2022/03/31 10:48:14;;;;;;;0.60;0.35;;;;;;;;;;5071751;28;20425;-36
2022/03/31 10:50:39;;;;;;;1.27;0.10;;;;;;;;;;5071404;28;20681;-35
2022/03/31 10:53:05;;;;;;;0.30;0.28;;;;;;;;;;5071118;28;20140;-35
2022/03/31 10:55:35;;;;;;;0.77;0.30;;;;;;;;;;5070884;28;20090;-35
2022/03/31 10:58:00;;;;;;;1.20;0.35;;;;;;;;;;5071494;28;20044;-35
2022/03/31 11:00:26;;;;;;;0.45;0.40;;;;;;;;;;5071459;28;20056;-35
2022/03/31 11:02:54;;;;;;;4.45;0.52;;;;;;;;;;5071345;28;20021;-35
2022/03/31 11:05:25;;;;;;;1.95;0.57;;;;;;;;;;5071207;28;20136;-35
2022/03/31 11:08:16;;;;;;;1.25;0.52;;;;;;;;;;5071537;28;20029;-35
2022/03/31 11:10:47;;;;;;;0.98;0.20;;;;;;;;;;5071313;28;20024;-35
2022/03/31 11:13:15;;;;;;;0.65;0.30;;;;;;;;;;5071540;28;20024;-36
2022/03/31 11:15:41;;;;;;;1.38;0.20;;;;;;;;;;5071279;28;20023;-36
2022/03/31 11:18:08;;;;;;;0.57;0.17;;;;;;;;;;5071265;28;20055;-35
2022/03/31 11:20:33;;;;;;;5.47;0.57;;;;;;;;;;5071455;28;20051;-35
2022/03/31 11:23:09;;;;;;;0.32;0.30;;;;;;;;;;5071057;28;20025;-35
2022/03/31 11:25:35;;;;;;;0.20;0.20;;;;;;;;;;5071547;28;20089;-35
2022/03/31 11:28:08;;;;;;;0.20;0.20;;;;;;;;;;5071425;28;20021;-35
2022/03/31 11:30:34;;;;;;;0.95;0.38;;;;;;;;;;5071135;28;20487;-35
2022/03/31 11:33:00;;;;;;;0.30;0.30;;;;;;;;;;5070943;28;20020;-35
2022/03/31 11:35:27;;;;;;;1.50;0.45;;;;;;;;;;5071352;28;20027;-36
2022/03/31 11:37:54;;;;;;;0.22;0.22;;;;;;;;;;5071185;28;20024;-35
2022/03/31 11:40:24;;;;;;;0.40;0.30;;;;;;;;;;5070961;28;20025;-35
2022/03/31 11:42:50;;;;;;;0.10;0.10;;;;;;;;;;5070935;28;20115;-35
2022/03/31 11:45:26;;;;;;;0.52;0.40;;;;;;;;;;5069958;28;20036;-35
2022/03/31 11:47:58;;;;;;;0.50;0.35;;;;;;;;;;5070872;28;20028;-35
2022/03/31 11:50:26;;;;;;;0.38;0.30;;;;;;;;;;5069667;28;20031;-35
2022/03/31 11:52:52;;;;;;;1.20;0.30;;;;;;;;;;5070763;28;20032;-35
2022/03/31 11:55:20;;;;;;;0.28;0.20;;;;;;;;;;5070891;28;20064;-35
2022/03/31 11:57:50;;;;;;;0.30;0.20;;;;;;;;;;5070737;28;20036;-36
2022/03/31 12:00:16;;;;;;;0.28;0.17;;;;;;;;;;5070875;28;20367;-35
2022/03/31 12:02:43;;;;;;;0.32;0.32;;;;;;;;;;5070643;28;20023;-35
2022/03/31 12:05:13;;;;;;;0.57;0.57;;;;;;;;;;5070158;28;20040;-35
2022/03/31 12:07:39;;;;;;;0.15;0.15;;;;;;;;;;5074591;28;20028;-35
2022/03/31 12:10:05;;;;;;;0.25;0.20;;;;;;;;;;5074768;28;20024;-35
2022/03/31 12:12:30;;;;;;;0.28;0.17;;;;;;;;;;5074496;28;20055;-35
2022/03/31 12:14:57;;;;;;;3.40;0.47;;;;;;;;;;5074423;28;20031;-35
2022/03/31 12:17:23;;;;;;;0.32;0.20;;;;;;;;;;5074417;28;20078;-35
2022/03/31 12:19:49;;;;;;;2.13;0.20;;;;;;;;;;5074209;28;20449;-35
2022/03/31 12:22:15;;;;;;;1.38;0.32;;;;;;;;;;5074330;28;20044;-35
2022/03/31 12:24:54;;;;;;;2.10;0.20;;;;;;;;;;5072833;28;20037;-35
2022/03/31 12:27:21;;;;;;;0.85;0.57;;;;;;;;;;5074275;28;20466;-35
2022/03/31 12:29:57;;;;;;;1.08;0.43;;;;;;;;;;5074275;28;20024;-35
2022/03/31 12:32:22;;;;;;;0.20;0.20;;;;;;;;;;5074314;28;20436;-35
2022/03/31 12:34:53;;;;;;;0.32;0.25;;;;;;;;;;5074022;28;20025;-35
2022/03/31 12:37:25;;;;;;;0.30;0.22;;;;;;;;;;5074309;28;20024;-35
2022/03/31 12:42:17;;;;;;;0.32;0.30;;;;;;;;;;4966073;28;20050;-34
2022/03/31 12:44:43;;;;;;;0.20;0.20;;;;;;;;;;4974364;28;20361;-34
2022/03/31 12:47:09;;;;;;;0.20;0.20;;;;;;;;;;4974001;28;20019;-34
2022/03/31 12:49:35;;;;;;;0.30;0.20;;;;;;;;;;4975475;28;20049;-34
2022/03/31 12:52:03;;;;;;;3.20;0.40;;;;;;;;;;4975117;28;20077;-34
2022/03/31 12:54:32;;;;;;;0.30;0.28;;;;;;;;;;4975172;28;20035;-34
2022/03/31 12:57:00;;;;;;;0.35;0.30;;;;;;;;;;4975044;28;20555;-34
2022/03/31 12:59:27;;;;;;;1.73;0.32;;;;;;;;;;4973893;28;20070;-34
2022/03/31 13:01:58;;;;;;;0.90;0.40;;;;;;;;;;4974944;28;20023;-34
2022/03/31 13:04:24;;;;;;;0.20;0.20;;;;;;;;;;4975118;28;20488;-34
2022/03/31 13:06:49;;;;;;;0.20;0.20;;;;;;;;;;4975009;28;20026;-34
2022/03/31 13:09:15;;;;;;;0.10;0.10;;;;;;;;;;4974778;28;20035;-34
2022/03/31 13:11:43;;;;;;;0.50;0.50;;;;;;;;;;4974803;28;20097;-34
2022/03/31 13:14:10;;;;;;;0.30;0.30;;;;;;;;;;4975028;28;20042;-34
2022/03/31 13:16:37;;;;;;;0.40;0.30;;;;;;;;;;4974060;28;20023;-34
2022/03/31 13:19:03;;;;;;;0.20;0.20;;;;;;;;;;4974517;28;20047;-34
2022/03/31 13:21:28;;;;;;;0.30;0.25;;;;;;;;;;4974916;28;20033;-34
2022/03/31 13:23:54;;;;;;;0.65;0.60;;;;;;;;;;4974518;28;20045;-34
2022/03/31 13:26:20;;;;;;;0.13;0.13;;;;;;;;;;4974497;28;20023;-34
2022/03/31 13:28:46;;;;;;;4.03;0.40;;;;;;;;;;4974585;28;20058;-34
2022/03/31 13:31:11;;;;;;;0.65;0.25;;;;;;;;;;4974591;28;20065;-34
2022/03/31 13:33:37;;;;;;;0.52;0.20;;;;;;;;;;4974571;28;20031;-34
2022/03/31 13:36:03;;;;;;;2.20;0.22;;;;;;;;;;4989685;28;20376;-34
2022/03/31 13:38:34;;;;;;;0.38;0.20;;;;;;;;;;4974345;28;20062;-34
2022/03/31 13:41:00;;;;;;;0.43;0.15;;;;;;;;;;4988950;28;20058;-34
2022/03/31 13:43:27;;;;;;;0.32;0.20;;;;;;;;;;4974297;28;20400;-34
2022/03/31 13:45:52;;;;;;;1.30;0.20;;;;;;;;;;4974472;28;20166;-34
2022/03/31 13:48:18;;;;;;;0.35;0.30;;;;;;;;;;4974204;28;20391;-34
2022/03/31 13:50:44;;;;;;;0.20;0.15;;;;;;;;;;4972874;28;20034;-34
2022/03/31 13:55:54;;;;;;;0.73;0.22;;;;;;;;;;4974083;28;20082;-34
2022/03/31 14:01:13;;;;;;;0.88;0.47;;;;;;;;;;4973808;28;20039;-34
2022/03/31 14:03:42;;;;;;;0.63;0.45;;;;;;;;;;4974143;28;20038;-34
2022/03/31 14:06:09;;;;;;;0.90;0.45;;;;;;;;;;4974010;28;20030;-34
2022/03/31 14:08:35;;;;;;;1.10;0.40;;;;;;;;;;4973915;28;20050;-34
2022/03/31 14:11:05;;;;;;;0.98;0.65;;;;;;;;;;4972412;28;20030;-34
2022/03/31 14:13:32;;;;;;;0.73;0.68;;;;;;;;;;4973784;28;20035;-34
2022/03/31 14:16:00;;;;;;;0.57;0.40;;;;;;;;;;4973531;28;20023;-34
2022/03/31 14:18:27;;;;;;;0.55;0.55;;;;;;;;;;4972776;28;20720;-34
2022/03/31 14:20:53;;;;;;;0.50;0.50;;;;;;;;;;4973519;28;20015;-34
2022/03/31 14:23:18;;;;;;;0.30;0.30;;;;;;;;;;4973467;28;20081;-34
2022/03/31 14:25:44;;;;;;;0.95;0.73;;;;;;;;;;4973626;28;20030;-34
2022/03/31 14:28:10;;;;;;;0.32;0.20;;;;;;;;;;4973384;28;20050;-34
2022/03/31 14:30:35;;;;;;;0.75;0.40;;;;;;;;;;4973478;28;20049;-34
2022/03/31 14:33:01;;;;;;;0.35;0.35;;;;;;;;;;4973396;28;20034;-34
2022/03/31 14:35:28;;;;;;;1.38;0.40;;;;;;;;;;4973604;28;20077;-34
2022/03/31 14:37:54;;;;;;;4.22;0.40;;;;;;;;;;4973363;28;20030;-34
2022/03/31 14:40:20;;;;;;;0.88;0.43;;;;;;;;;;4973325;28;20022;-34
2022/03/31 14:42:46;;;;;;;0.45;0.38;;;;;;;;;;4972965;28;20455;-34
2022/03/31 14:45:14;;;;;;;0.65;0.40;;;;;;;;;;4971785;28;20078;-34
2022/03/31 14:47:43;;;;;;;1.35;0.38;;;;;;;;;;4973190;28;20026;-36
2022/03/31 14:50:09;;;;;;;0.20;0.20;;;;;;;;;;4972942;28;20030;-34